createdAt,value
2018-12-05T00:00:29.597Z,11.50
2018-12-05T00:02:59.491Z,11.50
2018-12-05T00:05:28.352Z,11.40
2018-12-05T00:07:57.222Z,11.40
2018-12-05T00:10:26.154Z,11.40
2018-12-05T00:12:56.039Z,11.40
2018-12-05T00:15:24.907Z,11.40
2018-12-05T00:17:53.755Z,11.40
2018-12-05T00:20:22.613Z,11.40
2018-12-05T00:22:51.833Z,11.40
2018-12-05T00:25:20.675Z,11.40
2018-12-05T00:27:49.538Z,11.40
2018-12-05T00:30:18.399Z,11.40
2018-12-05T00:32:47.270Z,11.40
2018-12-05T00:35:16.313Z,11.40
2018-12-05T00:37:45.159Z,11.40
2018-12-05T00:40:14.869Z,11.40
2018-12-05T00:42:43.725Z,11.40
2018-12-05T00:45:14.548Z,11.40
2018-12-05T00:47:43.413Z,11.30
2018-12-05T00:50:12.280Z,11.40
2018-12-05T00:52:41.401Z,11.30
2018-12-05T00:55:10.360Z,11.40
2018-12-05T00:57:39.218Z,11.30
2018-12-05T01:00:09.830Z,11.30
2018-12-05T01:02:38.701Z,11.30
2018-12-05T01:05:08.052Z,11.30
2018-12-05T01:07:37.165Z,11.40
2018-12-05T01:10:06.815Z,11.40
2018-12-05T01:12:35.649Z,11.30
2018-12-05T01:15:05.358Z,11.40
2018-12-05T01:17:34.213Z,11.30
2018-12-05T01:20:03.070Z,11.30
2018-12-05T01:22:32.137Z,11.30
2018-12-05T01:25:01.023Z,11.30
2018-12-05T01:27:29.900Z,11.30
2018-12-05T01:29:58.836Z,11.30
2018-12-05T01:32:27.695Z,11.30
2018-12-05T01:34:56.580Z,11.30
2018-12-05T01:37:25.705Z,11.30
2018-12-05T01:39:54.641Z,11.30
2018-12-05T01:42:23.461Z,11.30
2018-12-05T01:44:55.694Z,11.30
2018-12-05T01:47:24.573Z,11.30
2018-12-05T01:49:53.427Z,11.30
2018-12-05T01:52:23.159Z,11.30
2018-12-05T01:54:53.283Z,11.20
2018-12-05T01:57:22.110Z,11.30
2018-12-05T01:59:50.981Z,11.30
2018-12-05T02:02:19.837Z,11.30
2018-12-05T02:04:48.949Z,11.20
2018-12-05T02:07:17.819Z,11.30
2018-12-05T02:09:48.306Z,11.30
2018-12-05T02:12:17.171Z,11.20
2018-12-05T02:14:46.657Z,11.20
2018-12-05T02:17:15.505Z,11.20
2018-12-05T02:19:44.368Z,11.20
2018-12-05T02:22:13.230Z,11.20
2018-12-05T02:24:42.410Z,11.20
2018-12-05T02:27:11.539Z,11.20
2018-12-05T02:29:45.840Z,11.20
2018-12-05T02:32:15.320Z,11.10
2018-12-05T02:34:44.184Z,11.20
2018-12-05T02:37:13.363Z,11.10
2018-12-05T02:39:42.192Z,11.10
2018-12-05T02:42:11.045Z,11.20
2018-12-05T02:44:39.900Z,11.10
2018-12-05T02:47:09.090Z,11.10
2018-12-05T02:49:38.295Z,11.20
2018-12-05T02:52:07.321Z,11.10
2018-12-05T02:54:36.195Z,11.10
2018-12-05T02:57:05.117Z,11.10
2018-12-05T02:59:35.033Z,11.10
2018-12-05T03:02:04.086Z,11.10
2018-12-05T03:04:32.930Z,11.10
2018-12-05T03:07:01.840Z,11.10
2018-12-05T03:09:30.689Z,11.10
2018-12-05T03:11:59.546Z,11.10
2018-12-05T03:14:28.601Z,11.10
2018-12-05T03:16:57.460Z,11.10
2018-12-05T03:19:26.308Z,11.10
2018-12-05T03:21:55.431Z,11.10
2018-12-05T03:24:24.281Z,11.10
2018-12-05T03:26:53.139Z,11.10
2018-12-05T03:29:22.308Z,11.10
2018-12-05T03:31:52.584Z,11.10
2018-12-05T03:34:21.523Z,11.00
2018-12-05T03:36:50.381Z,11.00
2018-12-05T03:39:19.245Z,11.00
2018-12-05T03:41:48.129Z,11.10
2018-12-05T03:44:17.762Z,11.10
2018-12-05T03:46:46.624Z,11.00
2018-12-05T03:49:15.492Z,11.00
2018-12-05T03:52:19.147Z,11.00
2018-12-05T03:54:48.862Z,11.00
2018-12-05T03:57:19.494Z,11.00
2018-12-05T03:59:48.355Z,11.00
2018-12-05T04:02:17.441Z,11.00
2018-12-05T04:04:48.852Z,11.00
2018-12-05T04:07:17.709Z,11.00
2018-12-05T04:09:46.565Z,11.00
2018-12-05T04:12:15.437Z,11.00
2018-12-05T04:14:44.301Z,11.00
2018-12-05T04:17:13.159Z,11.00
2018-12-05T04:19:42.028Z,11.00
2018-12-05T04:22:10.896Z,11.00
2018-12-05T04:24:39.769Z,11.00
2018-12-05T04:27:08.638Z,11.00
2018-12-05T04:29:37.482Z,11.00
2018-12-05T04:32:06.356Z,11.00
2018-12-05T04:34:35.301Z,11.00
2018-12-05T04:37:04.174Z,11.00
2018-12-05T04:39:33.789Z,11.00
2018-12-05T04:42:02.666Z,11.00
2018-12-05T04:44:31.520Z,11.00
2018-12-05T04:47:00.377Z,11.00
2018-12-05T04:49:29.237Z,10.90
2018-12-05T04:51:58.095Z,11.00
2018-12-05T04:54:26.950Z,10.90
2018-12-05T04:56:55.816Z,10.90
2018-12-05T04:59:24.696Z,10.90
2018-12-05T05:01:53.564Z,10.90
2018-12-05T05:04:22.726Z,10.90
2018-12-05T05:06:51.601Z,10.90
2018-12-05T05:09:20.448Z,10.90
2018-12-05T05:11:49.663Z,10.90
2018-12-05T05:14:18.526Z,10.90
2018-12-05T05:16:47.388Z,10.90
2018-12-05T05:19:16.263Z,10.90
2018-12-05T05:21:45.155Z,10.90
2018-12-05T05:24:14.012Z,10.90
2018-12-05T05:26:42.890Z,10.90
2018-12-05T05:29:11.936Z,10.90
2018-12-05T05:31:40.802Z,10.90
2018-12-05T05:34:09.662Z,10.90
2018-12-05T05:36:38.514Z,10.90
2018-12-05T05:39:08.473Z,10.90
2018-12-05T05:41:37.347Z,10.90
2018-12-05T05:44:06.213Z,10.90
2018-12-05T05:46:35.897Z,10.90
2018-12-05T05:49:04.777Z,10.90
2018-12-05T05:51:33.656Z,10.90
2018-12-05T05:54:02.505Z,10.90
2018-12-05T05:56:31.361Z,10.90
2018-12-05T05:59:00.572Z,10.80
2018-12-05T06:01:29.416Z,10.90
2018-12-05T06:03:59.268Z,10.90
2018-12-05T06:06:28.128Z,10.90
2018-12-05T06:08:57.088Z,10.80
2018-12-05T06:11:26.014Z,10.90
2018-12-05T06:13:55.561Z,10.90
2018-12-05T06:16:24.403Z,10.80
2018-12-05T06:18:53.281Z,10.90
2018-12-05T06:21:22.150Z,10.90
2018-12-05T06:23:51.329Z,10.90
2018-12-05T06:26:20.197Z,10.90
2018-12-05T06:28:49.061Z,10.90
2018-12-05T06:31:17.908Z,10.80
2018-12-05T06:33:46.763Z,10.80
2018-12-05T06:36:15.622Z,10.80
2018-12-05T06:38:44.472Z,10.80
2018-12-05T06:41:13.324Z,10.80
2018-12-05T06:43:42.187Z,10.80
2018-12-05T06:46:11.027Z,10.80
2018-12-05T06:48:39.881Z,10.80
2018-12-05T06:51:08.757Z,10.80
2018-12-05T06:53:37.629Z,10.80
2018-12-05T06:56:06.481Z,10.80
2018-12-05T06:58:35.344Z,10.80
2018-12-05T07:01:04.185Z,10.80
2018-12-05T07:03:33.856Z,10.80
2018-12-05T07:06:02.706Z,10.80
2018-12-05T07:08:31.544Z,10.80
2018-12-05T07:11:00.683Z,10.80
2018-12-05T07:13:29.542Z,10.80
2018-12-05T07:15:58.405Z,10.80
2018-12-05T07:18:27.259Z,10.80
2018-12-05T07:20:56.130Z,10.80
2018-12-05T07:23:24.990Z,10.80
2018-12-05T07:25:54.608Z,10.80
2018-12-05T07:28:23.452Z,10.80
2018-12-05T07:30:52.317Z,10.80
2018-12-05T07:33:21.223Z,10.80
2018-12-05T07:35:50.068Z,10.80
2018-12-05T07:38:19.588Z,10.80
2018-12-05T07:40:49.143Z,10.80
2018-12-05T07:43:18.027Z,10.80
2018-12-05T07:45:46.893Z,10.80
2018-12-05T07:48:15.747Z,10.80
2018-12-05T07:50:44.583Z,10.80
2018-12-05T07:53:13.438Z,10.80
2018-12-05T07:55:42.328Z,10.70
2018-12-05T07:58:11.191Z,10.70
2018-12-05T08:00:40.054Z,10.80
2018-12-05T08:03:08.904Z,10.80
2018-12-05T08:05:38.664Z,10.80
2018-12-05T08:08:09.504Z,10.70
2018-12-05T08:10:38.665Z,10.70
2018-12-05T08:13:07.539Z,10.70
2018-12-05T08:15:36.385Z,10.70
2018-12-05T08:18:05.721Z,10.70
2018-12-05T08:20:34.566Z,10.70
2018-12-05T08:23:03.900Z,10.70
2018-12-05T08:25:32.756Z,10.70
2018-12-05T08:28:01.686Z,10.70
2018-12-05T08:30:30.540Z,10.80
2018-12-05T08:32:59.400Z,10.80
2018-12-05T08:35:28.381Z,10.70
2018-12-05T08:37:57.237Z,10.80
2018-12-05T08:40:26.094Z,10.80
2018-12-05T08:42:54.963Z,10.70
2018-12-05T08:45:23.830Z,10.70
2018-12-05T08:47:52.692Z,10.70
2018-12-05T08:50:21.535Z,10.70
2018-12-05T08:52:50.688Z,10.70
2018-12-05T08:55:19.559Z,10.80
2018-12-05T08:57:50.409Z,10.70
2018-12-05T09:00:19.272Z,10.70
2018-12-05T09:02:48.129Z,10.70
2018-12-05T09:05:16.975Z,10.70
2018-12-05T09:07:45.839Z,10.70
2018-12-05T09:10:14.753Z,10.70
2018-12-05T09:12:43.611Z,10.70
2018-12-05T09:15:13.225Z,10.70
2018-12-05T09:17:42.032Z,10.70
2018-12-05T09:20:10.880Z,10.70
2018-12-05T09:22:41.371Z,10.70
2018-12-05T09:25:10.797Z,10.70
2018-12-05T09:27:39.648Z,10.70
2018-12-05T09:30:08.489Z,10.70
2018-12-05T09:32:38.408Z,10.70
2018-12-05T09:35:07.277Z,10.70
2018-12-05T09:37:36.130Z,10.70
2018-12-05T09:40:05.117Z,10.70
2018-12-05T09:42:33.987Z,10.70
2018-12-05T09:45:02.833Z,10.70
2018-12-05T09:47:31.681Z,10.70
2018-12-05T09:50:00.543Z,10.70
2018-12-05T09:52:30.012Z,10.70
2018-12-05T09:54:58.892Z,10.70
2018-12-05T09:57:27.748Z,10.70
2018-12-05T09:59:56.613Z,10.70
2018-12-05T10:02:25.460Z,10.70
2018-12-05T10:04:54.779Z,10.70
2018-12-05T10:07:23.605Z,10.70
2018-12-05T10:09:55.077Z,10.70
2018-12-05T10:12:23.937Z,10.70
2018-12-05T10:14:52.798Z,10.70
2018-12-05T10:17:21.645Z,10.70
2018-12-05T10:19:50.489Z,10.70
2018-12-05T10:22:19.320Z,10.70
2018-12-05T10:24:48.176Z,10.70
2018-12-05T10:27:17.052Z,10.70
2018-12-05T10:29:45.901Z,10.70
2018-12-05T10:32:14.747Z,10.70
2018-12-05T10:34:43.601Z,10.70
2018-12-05T10:37:12.452Z,10.70
2018-12-05T10:39:41.357Z,10.70
2018-12-05T10:42:10.224Z,10.70
2018-12-05T10:44:39.074Z,10.70
2018-12-05T10:47:07.924Z,10.70
2018-12-05T10:49:36.800Z,10.70
2018-12-05T10:52:05.675Z,10.70
2018-12-05T10:54:34.541Z,10.70
2018-12-05T10:57:03.395Z,10.70
2018-12-05T10:59:32.249Z,10.70
2018-12-05T11:02:06.947Z,10.70
2018-12-05T11:04:41.120Z,10.70
2018-12-05T11:07:13.264Z,10.70
2018-12-05T11:09:47.501Z,10.70
2018-12-05T11:12:21.856Z,10.70
2018-12-05T11:14:56.165Z,10.70
2018-12-05T11:17:30.526Z,10.70
2018-12-05T11:20:04.857Z,10.70
2018-12-05T11:22:39.038Z,10.70
2018-12-05T11:25:13.126Z,10.70
2018-12-05T11:27:42.322Z,10.70
2018-12-05T11:30:11.174Z,10.70
2018-12-05T11:32:40.365Z,10.70
2018-12-05T11:35:09.309Z,10.70
2018-12-05T11:37:38.174Z,10.70
2018-12-05T11:40:07.013Z,10.70
2018-12-05T11:42:35.901Z,10.70
2018-12-05T11:45:04.851Z,10.70
2018-12-05T11:47:33.705Z,10.70
2018-12-05T11:50:02.556Z,10.70
2018-12-05T11:52:31.416Z,10.70
2018-12-05T11:55:00.286Z,10.70
2018-12-05T11:57:29.148Z,10.70
2018-12-05T11:59:58.001Z,10.70
2018-12-05T12:02:26.852Z,10.70
2018-12-05T12:04:57.719Z,10.70
2018-12-05T12:07:26.586Z,10.70
2018-12-05T12:09:55.456Z,10.70
2018-12-05T12:12:29.834Z,10.70
2018-12-05T12:14:58.684Z,10.70
2018-12-05T12:17:27.559Z,10.70
2018-12-05T12:19:56.404Z,10.70
2018-12-05T12:22:25.254Z,10.70
2018-12-05T12:24:54.111Z,10.70
2018-12-05T12:27:22.960Z,10.70
2018-12-05T12:29:51.812Z,10.70
2018-12-05T12:32:20.678Z,10.70
2018-12-05T12:34:49.538Z,10.70
2018-12-05T12:37:48.762Z,10.70
2018-12-05T12:40:54.848Z,10.70
2018-12-05T12:43:38.861Z,10.70
2018-12-05T12:46:07.712Z,10.70
2018-12-05T12:48:36.634Z,10.70
2018-12-05T12:51:05.864Z,10.70
2018-12-05T12:53:35.345Z,10.70
2018-12-05T12:56:04.201Z,10.70
2018-12-05T12:58:33.107Z,10.70
2018-12-05T13:01:01.957Z,10.70
2018-12-05T13:04:01.132Z,10.70
2018-12-05T13:07:07.490Z,10.70
2018-12-05T13:10:13.808Z,10.70
2018-12-05T13:13:20.268Z,10.70
2018-12-05T13:16:26.847Z,10.70
2018-12-05T13:19:33.227Z,10.70
2018-12-05T13:22:39.533Z,10.70
2018-12-05T13:25:45.853Z,10.70
2018-12-05T13:28:52.012Z,10.70
2018-12-05T13:31:58.475Z,10.70
2018-12-05T13:35:04.849Z,10.70
2018-12-05T13:38:11.358Z,10.70
2018-12-05T13:41:22.569Z,10.60
2018-12-05T13:43:59.586Z,10.70
2018-12-05T13:46:30.043Z,10.70
2018-12-05T13:48:59.273Z,10.70
2018-12-05T13:51:28.369Z,10.60
2018-12-05T13:53:57.229Z,10.60
2018-12-05T13:56:26.077Z,10.70
2018-12-05T13:58:55.336Z,10.70
2018-12-05T14:01:24.173Z,10.70
2018-12-05T14:03:53.730Z,10.70
2018-12-05T14:06:23.145Z,10.60
2018-12-05T14:08:51.981Z,10.60
2018-12-05T14:11:21.044Z,10.70
2018-12-05T14:13:49.908Z,10.60
2018-12-05T14:16:18.770Z,10.70
2018-12-05T14:18:47.632Z,10.70
2018-12-05T14:21:16.491Z,10.70
2018-12-05T14:23:45.363Z,10.70
2018-12-05T14:26:14.229Z,10.70
2018-12-05T14:28:43.086Z,10.70
2018-12-05T14:31:11.962Z,10.70
2018-12-05T14:33:40.821Z,10.70
2018-12-05T14:36:10.018Z,10.70
2018-12-05T14:38:38.852Z,10.70
2018-12-05T14:41:07.718Z,10.70
2018-12-05T14:43:36.596Z,10.70
2018-12-05T14:46:05.496Z,10.70
2018-12-05T14:48:34.558Z,10.70
2018-12-05T14:51:03.407Z,10.70
2018-12-05T14:53:32.266Z,10.70
2018-12-05T14:56:01.129Z,10.70
2018-12-05T14:58:29.989Z,10.70
2018-12-05T15:00:58.853Z,10.70
2018-12-05T15:03:27.701Z,10.70
2018-12-05T15:05:56.552Z,10.70
2018-12-05T15:08:25.402Z,10.70
2018-12-05T15:10:54.256Z,10.70
2018-12-05T15:13:23.158Z,10.70
2018-12-05T15:15:52.020Z,10.70
2018-12-05T15:18:20.882Z,10.70
2018-12-05T15:20:49.736Z,10.70
2018-12-05T15:23:18.649Z,10.70
2018-12-05T15:25:49.469Z,10.70
2018-12-05T15:28:18.309Z,10.70
2018-12-05T15:30:47.477Z,10.70
2018-12-05T15:33:17.229Z,10.70
2018-12-05T15:35:46.079Z,10.70
2018-12-05T15:38:14.933Z,10.70
2018-12-05T15:40:43.796Z,10.60
2018-12-05T15:43:12.644Z,10.70
2018-12-05T15:45:41.510Z,10.60
2018-12-05T15:48:10.360Z,10.70
2018-12-05T15:50:39.214Z,10.70
2018-12-05T15:53:08.108Z,10.70
2018-12-05T15:55:36.982Z,10.70
2018-12-05T15:58:05.837Z,11.40
2018-12-05T16:00:34.702Z,10.70
2018-12-05T16:03:05.525Z,10.70
2018-12-05T16:05:34.388Z,10.70
2018-12-05T16:08:03.273Z,10.70
2018-12-05T16:10:33.109Z,10.70
2018-12-05T16:13:01.969Z,10.70
2018-12-05T16:15:30.816Z,10.70
2018-12-05T16:17:59.696Z,10.70
2018-12-05T16:20:28.541Z,10.70
2018-12-05T16:22:57.428Z,10.70
2018-12-05T16:25:26.306Z,10.70
2018-12-05T16:27:55.350Z,10.60
2018-12-05T16:30:24.242Z,10.70
2018-12-05T16:32:53.136Z,10.70
2018-12-05T16:35:22.004Z,10.70
2018-12-05T16:37:51.625Z,10.70
2018-12-05T16:40:21.050Z,10.70
2018-12-05T16:42:49.913Z,10.70
2018-12-05T16:45:18.781Z,10.70
2018-12-05T16:47:47.652Z,10.70
2018-12-05T16:50:16.519Z,10.70
2018-12-05T16:52:46.016Z,10.70
2018-12-05T16:55:14.876Z,10.70
2018-12-05T16:57:43.735Z,10.70
2018-12-05T17:00:14.866Z,10.70
2018-12-05T17:02:43.898Z,10.60
2018-12-05T17:05:12.756Z,10.70
2018-12-05T17:07:41.616Z,10.60
2018-12-05T17:10:10.467Z,10.70
2018-12-05T17:12:39.323Z,10.70
2018-12-05T17:15:08.965Z,10.70
2018-12-05T17:17:37.829Z,10.70
2018-12-05T17:20:08.442Z,10.70
2018-12-05T17:22:37.303Z,10.70
2018-12-05T17:25:06.161Z,10.70
2018-12-05T17:27:35.036Z,10.70
2018-12-05T17:30:04.280Z,10.70
2018-12-05T17:32:33.144Z,10.70
2018-12-05T17:35:02.031Z,10.70
2018-12-05T17:37:31.080Z,10.70
2018-12-05T17:39:59.950Z,10.70
2018-12-05T17:42:28.818Z,10.70
2018-12-05T17:44:57.687Z,10.70
2018-12-05T17:47:26.547Z,10.70
2018-12-05T17:49:55.429Z,10.70
2018-12-05T17:52:24.285Z,10.70
2018-12-05T17:54:53.141Z,10.70
2018-12-05T17:57:22.001Z,10.70
2018-12-05T17:59:51.200Z,10.70
2018-12-05T18:02:20.885Z,10.60
2018-12-05T18:04:49.756Z,10.70
2018-12-05T18:07:18.640Z,10.70
2018-12-05T18:09:47.487Z,10.60
2018-12-05T18:12:16.488Z,10.70
2018-12-05T18:14:45.360Z,10.70
2018-12-05T18:17:14.344Z,10.70
2018-12-05T18:19:43.923Z,10.70
2018-12-05T18:22:12.761Z,10.70
2018-12-05T18:24:42.165Z,10.70
2018-12-05T18:27:11.019Z,10.70
2018-12-05T18:29:39.872Z,10.70
2018-12-05T18:32:08.813Z,10.70
2018-12-05T18:34:37.676Z,10.70
2018-12-05T18:37:06.516Z,10.70
2018-12-05T18:39:36.120Z,10.70
2018-12-05T18:42:05.125Z,10.70
2018-12-05T18:44:34.105Z,10.70
2018-12-05T18:47:02.977Z,10.70
2018-12-05T18:49:31.838Z,10.70
2018-12-05T18:52:00.681Z,10.70
2018-12-05T18:54:29.873Z,10.70
2018-12-05T18:56:58.700Z,10.70
2018-12-05T18:59:27.552Z,10.70
2018-12-05T19:01:56.407Z,10.70
2018-12-05T19:04:25.359Z,10.70
2018-12-05T19:06:54.229Z,10.70
2018-12-05T19:09:26.854Z,10.70
2018-12-05T19:11:53.995Z,10.70
2018-12-05T19:14:28.234Z,10.70
2018-12-05T19:16:57.109Z,10.70
2018-12-05T19:19:26.282Z,10.70
2018-12-05T19:21:55.153Z,10.70
2018-12-05T19:24:24.987Z,10.70
2018-12-05T19:26:53.853Z,10.70
2018-12-05T19:29:22.829Z,10.70
2018-12-05T19:31:52.043Z,10.70
2018-12-05T19:34:21.205Z,10.70
2018-12-05T19:36:50.095Z,10.70
2018-12-05T19:39:18.984Z,10.70
2018-12-05T19:41:47.840Z,10.70
2018-12-05T19:44:17.022Z,10.70
2018-12-05T19:46:45.861Z,10.70
2018-12-05T19:49:14.726Z,10.70
2018-12-05T19:51:43.591Z,10.70
2018-12-05T19:54:12.925Z,10.70
2018-12-05T19:56:41.801Z,10.70
2018-12-05T19:59:10.653Z,10.70
2018-12-05T20:01:41.461Z,10.70
2018-12-05T20:04:10.357Z,10.70
2018-12-05T20:06:39.241Z,10.70
2018-12-05T20:09:09.044Z,10.70
2018-12-05T20:11:38.313Z,10.70
2018-12-05T20:14:07.490Z,10.70
2018-12-05T20:16:36.324Z,10.70
2018-12-05T20:19:05.196Z,10.70
2018-12-05T20:21:34.057Z,10.70
2018-12-05T20:24:03.277Z,10.70
2018-12-05T20:26:32.152Z,10.70
2018-12-05T20:29:01.095Z,10.70
2018-12-05T20:31:29.959Z,10.70
2018-12-05T20:33:59.534Z,10.70
2018-12-05T20:36:28.403Z,10.70
2018-12-05T20:38:57.253Z,10.70
2018-12-05T20:41:31.479Z,10.70
2018-12-05T20:43:56.955Z,10.70
2018-12-05T20:46:25.813Z,10.70
2018-12-05T20:48:54.684Z,10.70
2018-12-05T20:51:23.548Z,10.70
2018-12-05T20:53:52.432Z,10.70
2018-12-05T20:56:21.308Z,10.70
2018-12-05T20:58:50.176Z,10.70
2018-12-05T21:01:19.380Z,10.70
2018-12-05T21:03:48.261Z,10.70
2018-12-05T21:06:17.117Z,10.70
2018-12-05T21:08:45.995Z,10.70
2018-12-05T21:11:14.839Z,10.70
2018-12-05T21:13:43.702Z,10.70
2018-12-05T21:16:12.557Z,10.80
2018-12-05T21:18:41.436Z,10.70
2018-12-05T21:21:10.284Z,10.70
2018-12-05T21:23:39.152Z,10.70
2018-12-05T21:26:08.032Z,10.70
2018-12-05T21:28:36.868Z,10.70
2018-12-05T21:31:05.823Z,10.70
2018-12-05T21:33:34.673Z,10.70
2018-12-05T21:36:03.519Z,10.70
2018-12-05T21:38:32.381Z,10.70
2018-12-05T21:41:01.246Z,10.70
2018-12-05T21:43:30.096Z,10.80
2018-12-05T21:45:59.198Z,10.70
2018-12-05T21:48:28.028Z,10.80
2018-12-05T21:50:56.890Z,10.70
2018-12-05T21:53:26.467Z,10.80
2018-12-05T21:55:55.326Z,10.80
2018-12-05T21:58:24.170Z,10.80
2018-12-05T22:00:53.034Z,10.70
2018-12-05T22:03:21.885Z,10.80
2018-12-05T22:05:50.742Z,10.70
2018-12-05T22:08:20.271Z,10.70
2018-12-05T22:10:49.291Z,10.80
2018-12-05T22:13:18.126Z,10.80
2018-12-05T22:15:47.002Z,10.80
2018-12-05T22:18:15.865Z,10.70
2018-12-05T22:20:44.710Z,10.70
2018-12-05T22:23:13.560Z,10.70
2018-12-05T22:25:42.442Z,10.70
2018-12-05T22:28:11.281Z,10.70
2018-12-05T22:30:40.137Z,10.70
2018-12-05T22:33:09.007Z,10.70
2018-12-05T22:35:37.868Z,10.80
2018-12-05T22:38:06.709Z,10.70
2018-12-05T22:40:35.580Z,10.70
2018-12-05T22:43:04.449Z,10.70
2018-12-05T22:45:33.357Z,10.70
2018-12-05T22:48:02.252Z,10.80
2018-12-05T22:50:31.128Z,10.70
2018-12-05T22:53:00.020Z,10.80
2018-12-05T22:55:28.877Z,10.80
2018-12-05T22:57:58.263Z,10.80
2018-12-05T23:00:27.157Z,10.80
2018-12-05T23:02:58.631Z,10.80
2018-12-05T23:05:27.945Z,10.70
2018-12-05T23:07:56.805Z,10.70
2018-12-05T23:10:25.716Z,10.70
2018-12-05T23:12:54.569Z,10.80
2018-12-05T23:15:23.784Z,10.80
2018-12-05T23:17:52.796Z,10.80
2018-12-05T23:20:21.760Z,10.80
2018-12-05T23:22:50.785Z,10.70
2018-12-05T23:25:19.657Z,10.70
2018-12-05T23:27:48.892Z,10.80
2018-12-05T23:30:17.728Z,10.80
2018-12-05T23:32:47.490Z,10.80
2018-12-05T23:35:16.718Z,10.80
2018-12-05T23:37:45.805Z,10.80
2018-12-05T23:40:14.625Z,10.80
2018-12-05T23:42:44.903Z,10.70
2018-12-05T23:45:13.858Z,10.80
2018-12-05T23:47:43.321Z,10.70
2018-12-05T23:50:12.505Z,10.80
2018-12-05T23:52:41.367Z,10.80
2018-12-05T23:55:10.225Z,10.80
2018-12-05T23:57:39.412Z,10.80
